createdAt,value
2018-10-19T00:00:11.459Z,9.73
2018-10-19T00:02:43.886Z,7.53
2018-10-19T00:05:16.647Z,7.47
2018-10-19T00:07:49.007Z,7.57
2018-10-19T00:10:21.474Z,6.67
2018-10-19T00:12:53.973Z,6.80
2018-10-19T00:15:26.456Z,6.13
2018-10-19T00:17:58.856Z,7.17
2018-10-19T00:20:31.278Z,7.27
2018-10-19T00:23:03.780Z,7.23
2018-10-19T00:25:36.465Z,6.07
2018-10-19T00:28:08.906Z,8.40
2018-10-19T00:30:41.410Z,8.93
2018-10-19T00:33:13.913Z,7.80
2018-10-19T00:35:46.281Z,6.43
2018-10-19T00:38:18.666Z,6.00
2018-10-19T00:40:51.297Z,10.23
2018-10-19T00:43:23.678Z,4.53
2018-10-19T00:45:56.288Z,9.90
2018-10-19T00:48:28.696Z,6.53
2018-10-19T00:51:01.192Z,8.10
2018-10-19T00:53:33.668Z,9.93
2018-10-19T00:56:06.123Z,5.70
2018-10-19T00:58:38.544Z,6.47
2018-10-19T01:01:11.008Z,6.73
2018-10-19T01:03:43.394Z,5.97
2018-10-19T01:06:16.039Z,4.30
2018-10-19T01:08:48.509Z,9.13
2018-10-19T01:11:21.238Z,7.57
2018-10-19T01:13:53.638Z,6.83
2018-10-19T01:16:26.127Z,6.43
2018-10-19T01:18:58.560Z,11.20
2018-10-19T01:21:31.036Z,5.57
2018-10-19T01:24:03.602Z,9.20
2018-10-19T01:26:36.281Z,6.83
2018-10-19T01:29:08.740Z,6.13
2018-10-19T01:31:41.209Z,6.67
2018-10-19T01:34:13.630Z,6.97
2018-10-19T01:36:46.070Z,9.57
2018-10-19T01:39:18.954Z,6.87
2018-10-19T01:41:51.364Z,7.53
2018-10-19T01:44:23.863Z,5.07
2018-10-19T01:46:56.412Z,6.47
2018-10-19T01:49:28.860Z,4.00
2018-10-19T01:52:01.279Z,5.70
2018-10-19T01:54:33.779Z,5.00
2018-10-19T01:57:06.221Z,4.63
2018-10-19T01:59:38.706Z,6.17
2018-10-19T02:02:11.126Z,6.87
2018-10-19T02:04:43.559Z,6.17
2018-10-19T02:07:16.083Z,10.40
2018-10-19T02:09:48.490Z,9.87
2018-10-19T02:12:20.873Z,7.03
2018-10-19T02:14:53.347Z,9.00
2018-10-19T02:17:25.798Z,8.67
2018-10-19T02:19:58.209Z,13.83
2018-10-19T02:22:30.633Z,15.77
2018-10-19T02:25:03.128Z,4.53
2018-10-19T02:27:35.615Z,5.03
2018-10-19T02:30:07.892Z,7.60
2018-10-19T02:32:40.324Z,5.67
2018-10-19T02:35:12.905Z,5.77
2018-10-19T02:37:45.335Z,4.97
2018-10-19T02:40:17.746Z,7.10
2018-10-19T02:42:50.150Z,9.73
2018-10-19T02:45:22.599Z,7.97
2018-10-19T02:47:55.748Z,4.20
2018-10-19T02:50:28.229Z,6.13
2018-10-19T02:53:01.024Z,8.37
2018-10-19T02:55:33.442Z,7.60
2018-10-19T02:58:05.925Z,9.23
2018-10-19T03:00:38.325Z,7.83
2018-10-19T03:03:10.855Z,9.27
2018-10-19T03:05:43.335Z,3.10
2018-10-19T03:08:15.781Z,7.63
2018-10-19T03:10:48.944Z,3.43
2018-10-19T03:13:21.707Z,9.33
2018-10-19T03:15:54.116Z,7.13
2018-10-19T03:18:26.565Z,4.70
2018-10-19T03:20:59.201Z,7.83
2018-10-19T03:23:31.635Z,4.97
2018-10-19T03:26:05.258Z,4.23
2018-10-19T03:28:38.068Z,7.30
2018-10-19T03:31:10.952Z,7.43
2018-10-19T03:33:43.318Z,6.73
2018-10-19T03:36:15.733Z,6.30
2018-10-19T03:38:48.219Z,4.97
2018-10-19T03:41:20.680Z,8.27
2018-10-19T03:43:53.140Z,6.90
2018-10-19T03:46:25.551Z,5.70
2018-10-19T03:48:58.166Z,7.73
2018-10-19T03:51:30.616Z,7.77
2018-10-19T03:54:03.339Z,7.30
2018-10-19T03:56:35.828Z,3.73
2018-10-19T03:59:08.374Z,7.40
2018-10-19T04:01:40.797Z,6.23
2018-10-19T04:04:13.306Z,6.83
2018-10-19T04:06:46.043Z,7.00
2018-10-19T04:09:18.695Z,10.93
2018-10-19T04:11:51.138Z,7.43
2018-10-19T04:14:23.584Z,4.90
2018-10-19T04:16:56.409Z,5.50
2018-10-19T04:19:28.844Z,8.50
2018-10-19T04:22:01.287Z,5.63
2018-10-19T04:24:33.766Z,9.87
2018-10-19T04:27:06.311Z,7.07
2018-10-19T04:29:38.893Z,10.30
2018-10-19T04:32:11.359Z,7.07
2018-10-19T04:34:43.818Z,13.00
2018-10-19T04:37:16.311Z,8.23
2018-10-19T04:39:48.765Z,7.47
2018-10-19T04:42:21.329Z,9.17
2018-10-19T04:44:53.744Z,6.90
2018-10-19T04:47:26.223Z,8.07
2018-10-19T04:49:58.862Z,8.73
2018-10-19T04:52:31.290Z,6.97
2018-10-19T04:55:03.919Z,11.10
2018-10-19T04:57:36.426Z,7.43
2018-10-19T05:00:08.892Z,6.33
2018-10-19T05:02:41.446Z,8.00
2018-10-19T05:05:14.760Z,13.77
2018-10-19T05:07:49.445Z,10.20
2018-10-19T05:10:22.075Z,8.50
2018-10-19T05:12:55.215Z,8.10
2018-10-19T05:15:27.721Z,8.87
2018-10-19T05:18:00.216Z,11.93
2018-10-19T05:20:32.669Z,7.43
2018-10-19T05:23:05.389Z,14.40
2018-10-19T05:25:37.805Z,10.80
2018-10-19T05:28:10.222Z,7.60
2018-10-19T05:30:42.954Z,11.87
2018-10-19T05:33:15.479Z,9.10
2018-10-19T05:35:47.919Z,8.50
2018-10-19T05:38:20.444Z,15.17
2018-10-19T05:40:52.993Z,14.00
2018-10-19T05:43:25.550Z,9.83
2018-10-19T05:45:58.208Z,6.23
2018-10-19T05:48:30.651Z,12.23
2018-10-19T05:51:03.219Z,8.73
2018-10-19T05:53:35.758Z,7.90
2018-10-19T05:56:08.642Z,12.90
2018-10-19T05:58:41.123Z,8.13
2018-10-19T06:01:13.528Z,9.17
2018-10-19T06:03:45.994Z,9.47
2018-10-19T06:06:18.473Z,10.03
2018-10-19T06:08:51.187Z,9.80
2018-10-19T06:11:23.637Z,10.37
2018-10-19T06:13:56.162Z,12.63
2018-10-19T06:16:28.666Z,8.80
2018-10-19T06:19:01.355Z,11.87
2018-10-19T06:21:33.796Z,8.07
2018-10-19T06:24:07.473Z,9.83
2018-10-19T06:26:39.902Z,6.83
2018-10-19T06:29:12.421Z,5.93
2018-10-19T06:31:44.939Z,9.27
2018-10-19T06:34:17.399Z,12.83
2018-10-19T06:36:49.822Z,8.83
2018-10-19T06:39:22.238Z,7.70
2018-10-19T06:41:54.652Z,9.27
2018-10-19T06:44:27.140Z,8.97
2018-10-19T06:46:59.881Z,8.83
2018-10-19T06:49:32.580Z,11.57
2018-10-19T06:52:05.150Z,5.20
2018-10-19T06:54:37.689Z,8.53
2018-10-19T06:57:10.177Z,7.00
2018-10-19T06:59:42.630Z,7.97
2018-10-19T07:02:15.148Z,8.87
2018-10-19T07:04:47.582Z,10.70
2018-10-19T07:07:20.038Z,8.10
2018-10-19T07:09:52.663Z,7.63
2018-10-19T07:12:25.157Z,7.40
2018-10-19T07:14:57.720Z,8.27
2018-10-19T07:17:30.284Z,5.47
2018-10-19T07:20:02.951Z,6.70
2018-10-19T07:22:35.408Z,5.63
2018-10-19T07:25:08.378Z,4.77
2018-10-19T07:27:40.844Z,6.43
2018-10-19T07:30:13.331Z,8.33
2018-10-19T07:32:45.833Z,9.20
2018-10-19T07:35:18.338Z,6.77
2018-10-19T07:37:50.779Z,10.20
2018-10-19T07:40:23.357Z,9.47
2018-10-19T07:42:55.813Z,4.53
2018-10-19T07:45:28.239Z,10.83
2018-10-19T07:48:01.125Z,8.37
2018-10-19T07:50:33.414Z,7.97
2018-10-19T07:53:06.018Z,5.47
2018-10-19T07:55:39.177Z,9.50
2018-10-19T07:58:11.712Z,8.63
2018-10-19T08:00:44.455Z,8.20
2018-10-19T08:03:17.026Z,9.33
2018-10-19T08:05:49.463Z,5.27
2018-10-19T08:08:22.141Z,3.70
2018-10-19T08:10:54.678Z,6.53
2018-10-19T08:13:27.218Z,7.57
2018-10-19T08:16:00.587Z,16.53
2018-10-19T08:18:33.186Z,5.50
2018-10-19T08:21:06.319Z,5.70
2018-10-19T08:23:38.742Z,6.63
2018-10-19T08:26:11.388Z,10.00
2018-10-19T08:28:44.010Z,5.60
2018-10-19T08:31:16.440Z,8.57
2018-10-19T08:33:49.667Z,10.47
2018-10-19T08:36:22.354Z,18.27
2018-10-19T08:38:54.889Z,7.50
2018-10-19T08:41:27.433Z,8.97
2018-10-19T08:44:00.135Z,4.93
2018-10-19T08:46:37.754Z,7.63
2018-10-19T08:49:11.363Z,8.17
2018-10-19T08:51:44.004Z,5.50
2018-10-19T08:54:16.509Z,7.80
2018-10-19T08:56:49.254Z,9.13
2018-10-19T08:59:21.798Z,7.23
2018-10-19T09:01:54.514Z,7.63
2018-10-19T09:04:26.942Z,7.47
2018-10-19T09:06:59.419Z,5.17
2018-10-19T09:09:31.993Z,8.57
2018-10-19T09:12:04.925Z,4.53
2018-10-19T09:14:50.812Z,9.07
2018-10-19T09:17:23.384Z,12.53
2018-10-19T09:19:55.985Z,8.57
2018-10-19T09:22:28.565Z,6.73
2018-10-19T09:25:01.295Z,8.60
2018-10-19T09:27:33.846Z,11.07
2018-10-19T09:30:08.086Z,7.53
2018-10-19T09:32:40.970Z,5.77
2018-10-19T09:35:13.646Z,9.63
2018-10-19T09:37:46.097Z,7.10
2018-10-19T09:40:18.729Z,6.23
2018-10-19T09:42:51.227Z,9.67
2018-10-19T09:45:23.805Z,8.53
2018-10-19T09:47:57.571Z,6.80
2018-10-19T09:50:30.291Z,10.00
2018-10-19T09:53:03.234Z,10.37
2018-10-19T09:55:35.811Z,7.63
2018-10-19T09:58:08.304Z,11.47
2018-10-19T10:00:46.482Z,8.13
2018-10-19T10:03:19.106Z,8.90
2018-10-19T10:05:51.736Z,3.80
2018-10-19T10:08:24.594Z,4.83
2018-10-19T10:10:57.287Z,7.23
2018-10-19T10:13:29.973Z,7.50
2018-10-19T10:16:02.831Z,7.83
2018-10-19T10:18:35.689Z,6.37
2018-10-19T10:21:08.330Z,4.67
2018-10-19T10:23:41.559Z,5.43
2018-10-19T10:26:14.579Z,3.93
2018-10-19T10:28:47.494Z,11.57
2018-10-19T10:31:20.215Z,4.70
2018-10-19T10:33:52.876Z,9.03
2018-10-19T10:36:26.956Z,8.63
2018-10-19T10:38:59.612Z,10.17
2018-10-19T10:41:32.033Z,9.53
2018-10-19T10:44:04.726Z,7.90
2018-10-19T10:46:37.394Z,6.17
2018-10-19T10:49:09.916Z,4.23
2018-10-19T10:51:42.291Z,4.50
2018-10-19T10:54:14.747Z,4.73
2018-10-19T10:56:47.223Z,4.20
2018-10-19T10:59:19.659Z,6.40
2018-10-19T11:01:52.119Z,5.10
2018-10-19T11:04:24.748Z,5.30
2018-10-19T11:06:57.368Z,4.40
2018-10-19T11:09:29.808Z,4.87
2018-10-19T11:12:02.825Z,5.20
2018-10-19T11:14:35.430Z,6.37
2018-10-19T11:17:08.861Z,3.77
2018-10-19T11:19:41.319Z,4.73
2018-10-19T11:22:13.900Z,7.40
2018-10-19T11:24:46.645Z,7.00
2018-10-19T11:27:19.141Z,4.77
2018-10-19T11:29:51.715Z,3.70
2018-10-19T11:32:24.231Z,5.73
2018-10-19T11:34:56.807Z,4.13
2018-10-19T11:37:29.616Z,6.83
2018-10-19T11:40:14.380Z,7.13
2018-10-19T11:42:46.826Z,4.73
2018-10-19T11:45:19.393Z,3.20
2018-10-19T11:47:52.177Z,7.17
2018-10-19T11:50:24.807Z,4.43
2018-10-19T11:52:57.576Z,3.40
2018-10-19T11:55:30.062Z,3.80
2018-10-19T11:58:04.491Z,4.90
2018-10-19T12:00:37.061Z,5.87
2018-10-19T12:03:09.683Z,6.57
2018-10-19T12:05:42.281Z,3.60
2018-10-19T12:08:15.030Z,4.03
2018-10-19T12:10:47.572Z,4.77
2018-10-19T12:13:20.014Z,4.90
2018-10-19T12:15:52.622Z,7.40
2018-10-19T12:18:25.163Z,3.23
2018-10-19T12:20:57.832Z,5.00
2018-10-19T12:23:30.216Z,5.53
2018-10-19T12:26:02.796Z,3.13
2018-10-19T12:28:35.214Z,5.67
2018-10-19T12:31:07.724Z,6.67
2018-10-19T12:33:40.198Z,5.13
2018-10-19T12:36:12.737Z,6.33
2018-10-19T12:38:45.470Z,7.53
2018-10-19T12:41:17.970Z,4.33
2018-10-19T12:43:50.591Z,4.13
2018-10-19T12:46:36.795Z,4.07
2018-10-19T12:49:10.111Z,4.93
2018-10-19T12:51:42.573Z,6.07
2018-10-19T12:54:15.159Z,7.00
2018-10-19T12:56:47.665Z,5.93
2018-10-19T12:59:20.169Z,3.47
2018-10-19T13:01:52.744Z,5.43
2018-10-19T13:04:25.273Z,6.80
2018-10-19T13:06:57.842Z,6.03
2018-10-19T13:09:30.335Z,3.93
2018-10-19T13:12:03.048Z,5.67
2018-10-19T13:14:35.785Z,3.70
2018-10-19T13:17:08.826Z,5.77
2018-10-19T13:19:41.755Z,5.23
2018-10-19T13:22:14.341Z,4.87
2018-10-19T13:24:46.770Z,5.37
2018-10-19T13:27:19.655Z,7.07
2018-10-19T13:29:52.174Z,5.20
2018-10-19T13:32:24.695Z,4.87
2018-10-19T13:34:57.476Z,6.53
2018-10-19T13:37:29.907Z,3.53
2018-10-19T13:40:02.521Z,7.90
2018-10-19T13:42:35.034Z,12.90
2018-10-19T13:45:07.651Z,5.63
2018-10-19T13:47:40.072Z,5.43
2018-10-19T13:50:12.604Z,7.57
2018-10-19T13:52:45.261Z,4.73
2018-10-19T13:55:17.728Z,7.90
2018-10-19T13:57:50.238Z,3.40
2018-10-19T14:00:22.820Z,5.30
2018-10-19T14:02:56.280Z,6.57
2018-10-19T14:05:29.066Z,4.13
2018-10-19T14:08:01.381Z,3.13
2018-10-19T14:10:33.865Z,5.03
2018-10-19T14:13:06.766Z,4.63
2018-10-19T14:15:39.225Z,3.27
2018-10-19T14:18:11.755Z,4.27
2018-10-19T14:20:44.215Z,6.40
2018-10-19T14:23:16.789Z,5.67
2018-10-19T14:25:49.292Z,3.00
2018-10-19T14:28:21.830Z,6.27
2018-10-19T14:30:54.322Z,2.50
2018-10-19T14:33:26.974Z,2.60
2018-10-19T14:35:59.348Z,4.40
2018-10-19T14:38:32.023Z,3.67
2018-10-19T14:41:06.102Z,7.57
2018-10-19T14:43:38.587Z,5.67
2018-10-19T14:46:11.058Z,4.07
2018-10-19T14:48:43.631Z,3.10
2018-10-19T14:51:16.230Z,4.83
2018-10-19T14:53:48.757Z,7.60
2018-10-19T14:56:21.204Z,7.47
2018-10-19T14:58:53.776Z,6.53
2018-10-19T15:01:26.278Z,7.50
2018-10-19T15:03:58.750Z,10.70
2018-10-19T15:06:31.515Z,5.90
2018-10-19T15:09:06.457Z,3.27
2018-10-19T15:11:39.775Z,2.97
2018-10-19T15:14:11.945Z,5.23
2018-10-19T15:16:44.412Z,4.57
2018-10-19T15:19:16.965Z,5.13
2018-10-19T15:21:49.719Z,5.17
2018-10-19T15:24:22.264Z,2.63
2018-10-19T15:26:54.733Z,4.77
2018-10-19T15:29:27.350Z,3.80
2018-10-19T15:31:59.866Z,5.37
2018-10-19T15:34:32.446Z,5.97
2018-10-19T15:37:04.947Z,5.50
2018-10-19T15:39:37.476Z,4.13
2018-10-19T15:42:10.352Z,3.50
2018-10-19T15:44:42.771Z,4.73
2018-10-19T15:47:15.343Z,8.13
2018-10-19T15:49:47.772Z,5.83
2018-10-19T15:52:20.274Z,4.10
2018-10-19T15:54:53.128Z,6.10
2018-10-19T15:57:25.692Z,5.13
2018-10-19T15:59:58.201Z,8.20
2018-10-19T16:02:30.934Z,9.00
2018-10-19T16:05:03.568Z,7.37
2018-10-19T16:07:36.059Z,7.63
2018-10-19T16:10:08.532Z,6.20
2018-10-19T16:12:41.016Z,7.77
2018-10-19T16:15:13.586Z,8.50
2018-10-19T16:17:46.083Z,10.93
2018-10-19T16:20:18.517Z,5.47
2018-10-19T16:22:52.487Z,7.57
2018-10-19T16:25:24.888Z,7.97
2018-10-19T16:27:57.607Z,9.73
2018-10-19T16:30:30.147Z,5.50
2018-10-19T16:33:02.641Z,7.07
2018-10-19T16:35:35.079Z,11.13
2018-10-19T16:38:07.514Z,6.27
2018-10-19T16:40:39.965Z,7.53
2018-10-19T16:43:12.537Z,9.33
2018-10-19T16:45:45.037Z,2.40
2018-10-19T16:48:17.534Z,6.03
2018-10-19T16:50:49.932Z,3.17
2018-10-19T16:53:22.414Z,5.63
2018-10-19T16:55:54.889Z,4.93
2018-10-19T16:58:27.393Z,7.00
2018-10-19T17:00:59.854Z,4.07
2018-10-19T17:03:32.385Z,4.60
2018-10-19T17:06:05.341Z,5.73
2018-10-19T17:08:37.703Z,8.60
2018-10-19T17:11:10.168Z,4.63
2018-10-19T17:13:42.618Z,5.37
2018-10-19T17:16:15.139Z,6.67
2018-10-19T17:18:47.833Z,6.40
2018-10-19T17:21:20.376Z,9.57
2018-10-19T17:23:52.949Z,7.47
2018-10-19T17:26:25.528Z,6.70
2018-10-19T17:28:58.133Z,7.30
2018-10-19T17:31:30.580Z,5.67
2018-10-19T17:34:03.047Z,9.87
2018-10-19T17:36:35.908Z,9.37
2018-10-19T17:39:09.129Z,6.57
2018-10-19T17:41:41.616Z,10.23
2018-10-19T17:44:14.169Z,8.67
2018-10-19T17:46:46.785Z,7.27
2018-10-19T17:49:19.370Z,8.57
2018-10-19T17:51:51.901Z,7.80
2018-10-19T17:54:24.345Z,9.97
2018-10-19T17:56:56.929Z,12.37
2018-10-19T17:59:29.408Z,8.37
2018-10-19T18:02:01.931Z,9.53
2018-10-19T18:04:34.567Z,11.03
2018-10-19T18:07:07.288Z,9.40
2018-10-19T18:09:39.945Z,10.60
2018-10-19T18:12:12.382Z,12.33
2018-10-19T18:14:44.840Z,9.97
2018-10-19T18:17:17.288Z,12.23
2018-10-19T18:19:50.021Z,11.17
2018-10-19T18:22:22.637Z,9.37
2018-10-19T18:24:55.241Z,9.27
2018-10-19T18:27:27.751Z,10.20
2018-10-19T18:30:00.236Z,12.00
2018-10-19T18:32:32.676Z,13.43
2018-10-19T18:35:06.595Z,13.40
2018-10-19T18:37:39.306Z,10.97
2018-10-19T18:40:12.484Z,13.07
2018-10-19T18:42:44.991Z,12.33
2018-10-19T18:45:17.546Z,11.00
2018-10-19T18:47:50.048Z,13.80
2018-10-19T18:50:22.596Z,13.60
2018-10-19T18:52:55.070Z,11.33
2018-10-19T18:55:27.512Z,16.87
2018-10-19T18:57:59.956Z,11.80
2018-10-19T19:00:32.672Z,15.80
2018-10-19T19:03:05.503Z,25.13
2018-10-19T19:05:38.130Z,17.50
2018-10-19T19:08:10.677Z,9.50
2018-10-19T19:10:43.102Z,15.40
2018-10-19T19:13:21.111Z,10.83
2018-10-19T19:15:53.728Z,13.13
2018-10-19T19:18:26.431Z,14.80
2018-10-19T19:20:59.123Z,14.80
2018-10-19T19:23:36.115Z,15.83
2018-10-19T19:26:10.825Z,15.73
2018-10-19T19:28:43.456Z,15.40
2018-10-19T19:31:15.835Z,12.37
2018-10-19T19:33:54.071Z,11.80
2018-10-19T19:36:26.501Z,12.33
2018-10-19T19:38:58.974Z,16.70
2018-10-19T19:41:37.029Z,11.03
2018-10-19T19:44:09.526Z,18.33
2018-10-19T19:46:42.054Z,13.37
2018-10-19T19:49:20.345Z,12.67
2018-10-19T19:51:52.820Z,20.90
2018-10-19T19:54:25.307Z,15.50
2018-10-19T19:56:57.739Z,13.03
2018-10-19T19:59:30.192Z,12.77
2018-10-19T20:02:02.971Z,21.60
2018-10-19T20:04:35.441Z,16.83
2018-10-19T20:07:08.090Z,14.17
2018-10-19T20:09:40.495Z,12.93
2018-10-19T20:12:12.995Z,12.73
2018-10-19T20:14:45.413Z,15.77
2018-10-19T20:17:17.881Z,17.13
2018-10-19T20:19:50.328Z,12.97
2018-10-19T20:22:22.758Z,16.27
2018-10-19T20:24:55.207Z,18.20
2018-10-19T20:27:27.676Z,11.90
2018-10-19T20:30:00.099Z,13.10
2018-10-19T20:32:32.612Z,14.97
2018-10-19T20:35:05.013Z,14.80
2018-10-19T20:37:37.501Z,17.47
2018-10-19T20:40:09.900Z,12.93
2018-10-19T20:42:42.620Z,15.20
2018-10-19T20:45:15.019Z,12.27
2018-10-19T20:47:47.599Z,13.47
2018-10-19T20:50:19.983Z,13.33
2018-10-19T20:52:52.771Z,12.87
2018-10-19T20:55:25.210Z,12.03
2018-10-19T20:57:57.615Z,13.03
2018-10-19T21:00:30.038Z,14.67
2018-10-19T21:03:02.451Z,17.10
2018-10-19T21:05:34.911Z,13.23
2018-10-19T21:08:07.677Z,11.57
2018-10-19T21:10:40.114Z,13.33
2018-10-19T21:13:12.619Z,14.43
2018-10-19T21:15:45.027Z,13.47
2018-10-19T21:18:17.514Z,14.83
2018-10-19T21:20:49.965Z,13.30
2018-10-19T21:23:22.400Z,16.80
2018-10-19T21:25:54.923Z,14.90
2018-10-19T21:28:27.322Z,11.90
2018-10-19T21:30:59.742Z,15.40
2018-10-19T21:33:32.190Z,11.50
2018-10-19T21:36:04.695Z,15.20
2018-10-19T21:38:37.117Z,17.90
2018-10-19T21:41:09.725Z,14.53
2018-10-19T21:43:42.401Z,13.80
2018-10-19T21:46:14.971Z,14.50
2018-10-19T21:48:47.678Z,15.47
2018-10-19T21:51:20.059Z,12.53
2018-10-19T21:53:52.518Z,14.93
2018-10-19T21:56:25.157Z,14.60
2018-10-19T21:58:57.635Z,17.20
2018-10-19T22:01:30.176Z,13.73
2018-10-19T22:04:02.602Z,12.63
2018-10-19T22:06:35.150Z,15.60
2018-10-19T22:09:08.773Z,12.63
2018-10-19T22:11:41.665Z,21.37
2018-10-19T22:14:14.151Z,14.37
2018-10-19T22:16:46.547Z,13.30
2018-10-19T22:19:18.982Z,15.13
2018-10-19T22:21:51.426Z,14.17
2018-10-19T22:24:23.841Z,14.83
2018-10-19T22:26:56.276Z,14.77
2018-10-19T22:29:28.713Z,15.50
2018-10-19T22:32:01.210Z,13.40
2018-10-19T22:34:33.690Z,17.07
2018-10-19T22:37:06.202Z,20.50
2018-10-19T22:39:38.656Z,12.20
2018-10-19T22:42:11.367Z,11.27
2018-10-19T22:44:43.864Z,15.93
2018-10-19T22:47:16.655Z,15.20
2018-10-19T22:49:49.092Z,15.00
2018-10-19T22:52:21.944Z,17.87
2018-10-19T22:54:54.357Z,18.77
2018-10-19T22:57:26.853Z,16.40
2018-10-19T22:59:59.262Z,13.00
2018-10-19T23:02:31.759Z,15.67
2018-10-19T23:05:04.618Z,14.40
2018-10-19T23:07:37.004Z,14.17
2018-10-19T23:10:09.554Z,12.43
2018-10-19T23:12:42.117Z,15.63
2018-10-19T23:15:14.686Z,16.50
2018-10-19T23:17:47.154Z,14.17
2018-10-19T23:20:19.579Z,13.40
2018-10-19T23:22:52.039Z,14.40
2018-10-19T23:25:24.490Z,10.07
2018-10-19T23:27:56.983Z,11.23
2018-10-19T23:30:29.456Z,14.13
2018-10-19T23:33:01.902Z,15.57
2018-10-19T23:35:34.623Z,13.70
2018-10-19T23:38:07.046Z,13.37
2018-10-19T23:40:39.474Z,13.03
2018-10-19T23:43:11.934Z,11.77
2018-10-19T23:45:44.371Z,11.00
2018-10-19T23:48:16.910Z,16.10
2018-10-19T23:50:49.389Z,10.77
2018-10-19T23:53:21.782Z,12.77
2018-10-19T23:55:54.159Z,13.90
2018-10-19T23:58:26.582Z,10.83
